sensor_id;sensor_type;location;lat;lon;timestamp;pressure;altitude;pressure_sealevel;temperature;humidity
21944;BME280;11136;48.778;9.126;2024-01-07T00:01:57;96753.81;;;6.81;71.44
21944;BME280;11136;48.778;9.126;2024-01-07T00:04:22;96625.28;;;6.03;71.73
21944;BME280;11136;48.778;9.126;2024-01-07T00:06:47;96683.44;;;6.37;71.30
21944;BME280;11136;48.778;9.126;2024-01-07T00:09:13;96851.78;;;7.45;71.27
21944;BME280;11136;48.778;9.126;2024-01-07T00:11:38;96590.94;;;5.67;71.04
21944;BME280;11136;48.778;9.126;2024-01-07T00:14:04;96857.72;;;7.46;71.28
21944;BME280;11136;48.778;9.126;2024-01-07T00:16:29;96853.44;;;7.46;70.94
21944;BME280;11136;48.778;9.126;2024-01-07T00:18:54;96527.38;;;5.25;71.52
21944;BME280;11136;48.778;9.126;2024-01-07T00:21:20;96857.72;;;7.46;70.94
21944;BME280;11136;48.778;9.126;2024-01-07T00:23:45;96597.09;;;5.77;70.65
21944;BME280;11136;48.778;9.126;2024-01-07T00:26:10;96682.72;;;6.35;71.17
21944;BME280;11136;48.778;9.126;2024-01-07T00:28:36;96860.38;;;7.44;71.13
21944;BME280;11136;48.778;9.126;2024-01-07T00:31:01;96723.72;;;6.59;71.21
21944;BME280;11136;48.778;9.126;2024-01-07T00:33:26;96738.72;;;6.50;70.96
21944;BME280;11136;48.778;9.126;2024-01-07T00:35:51;96794.38;;;6.84;71.12
21944;BME280;11136;48.778;9.126;2024-01-07T00:38:17;96587.28;;;5.57;71.00
21944;BME280;11136;48.778;9.126;2024-01-07T00:40:43;96854.72;;;7.39;71.38
21944;BME280;11136;48.778;9.126;2024-01-07T00:43:08;96625.03;;;5.93;71.05
21944;BME280;11136;48.778;9.126;2024-01-07T00:45:33;96823.47;;;7.09;71.69
21944;BME280;11136;48.778;9.126;2024-01-07T00:47:59;96585.66;;;5.70;71.36
21944;BME280;11136;48.778;9.126;2024-01-07T00:50:24;96634.88;;;5.83;71.06
21944;BME280;11136;48.778;9.126;2024-01-07T00:52:49;96583.84;;;5.58;71.10
21944;BME280;11136;48.778;9.126;2024-01-07T00:55:14;96617.63;;;5.74;71.28
21944;BME280;11136;48.778;9.126;2024-01-07T00:57:40;96692.34;;;6.02;71.73
21944;BME280;11136;48.778;9.126;2024-01-07T01:00:06;96815.44;;;7.00;71.30
21944;BME280;11136;48.778;9.126;2024-01-07T01:02:32;96859.59;;;7.29;71.66
21944;BME280;11136;48.778;9.126;2024-01-07T01:04:57;96681.81;;;6.08;71.21
21944;BME280;11136;48.778;9.126;2024-01-07T01:07:22;96693.28;;;6.15;71.35
21944;BME280;11136;48.778;9.126;2024-01-07T01:09:47;96765.72;;;6.66;71.42
21944;BME280;11136;48.778;9.126;2024-01-07T01:12:13;96761.47;;;6.38;71.32
21944;BME280;11136;48.778;9.126;2024-01-07T01:14:38;96700.19;;;6.13;71.24
21944;BME280;11136;48.778;9.126;2024-01-07T01:17:03;96585.09;;;5.51;71.75
21944;BME280;11136;48.778;9.126;2024-01-07T01:19:29;96759.72;;;6.25;71.63
21944;BME280;11136;48.778;9.126;2024-01-07T01:21:54;96746.91;;;6.40;71.91
21944;BME280;11136;48.778;9.126;2024-01-07T01:24:19;96680.13;;;5.78;71.65
21944;BME280;11136;48.778;9.126;2024-01-07T01:26:44;96724.53;;;6.03;71.59
21944;BME280;11136;48.778;9.126;2024-01-07T01:29:10;96793.94;;;6.63;71.56
21944;BME280;11136;48.778;9.126;2024-01-07T01:31:35;96662.06;;;5.69;71.70
21944;BME280;11136;48.778;9.126;2024-01-07T01:34:00;96887.97;;;7.23;71.90
21944;BME280;11136;48.778;9.126;2024-01-07T01:36:26;96703.06;;;6.07;71.92
21944;BME280;11136;48.778;9.126;2024-01-07T01:38:51;96888.34;;;7.17;71.93
21944;BME280;11136;48.778;9.126;2024-01-07T01:41:16;96683.47;;;5.79;71.92
21944;BME280;11136;48.778;9.126;2024-01-07T01:43:42;96758.53;;;6.30;72.06
21944;BME280;11136;48.778;9.126;2024-01-07T01:46:07;96885.53;;;7.22;72.09
21944;BME280;11136;48.778;9.126;2024-01-07T01:48:35;96774.91;;;6.40;72.31
21944;BME280;11136;48.778;9.126;2024-01-07T01:51:01;96839.13;;;6.74;72.08
21944;BME280;11136;48.778;9.126;2024-01-07T01:53:27;96669.91;;;5.64;71.84
21944;BME280;11136;48.778;9.126;2024-01-07T01:55:55;96675.41;;;5.72;72.07
21944;BME280;11136;48.778;9.126;2024-01-07T01:58:22;96554.28;;;5.13;72.02
21944;BME280;11136;48.778;9.126;2024-01-07T02:00:48;96769.38;;;6.48;72.42
21944;BME280;11136;48.778;9.126;2024-01-07T02:03:13;96511.31;;;4.80;72.08
21944;BME280;11136;48.778;9.126;2024-01-07T02:05:38;96917.13;;;7.19;72.69
21944;BME280;11136;48.778;9.126;2024-01-07T02:08:05;96597.78;;;5.37;72.47
21944;BME280;11136;48.778;9.126;2024-01-07T02:10:31;96892.44;;;7.20;72.37
21944;BME280;11136;48.778;9.126;2024-01-07T02:13:00;96890.81;;;7.19;72.47
21944;BME280;11136;48.778;9.126;2024-01-07T02:15:25;96891.38;;;7.10;72.98
21944;BME280;11136;48.778;9.126;2024-01-07T02:17:50;96534.91;;;4.82;72.66
21944;BME280;11136;48.778;9.126;2024-01-07T02:20:16;96212.91;;;2.85;72.25
21944;BME280;11136;48.778;9.126;2024-01-07T02:22:41;96720.53;;;5.99;72.72
21944;BME280;11136;48.778;9.126;2024-01-07T02:25:06;96686.84;;;5.79;72.71
21944;BME280;11136;48.778;9.126;2024-01-07T02:27:33;96844.94;;;6.76;72.59
21944;BME280;11136;48.778;9.126;2024-01-07T02:29:58;96821.75;;;6.38;72.58
21944;BME280;11136;48.778;9.126;2024-01-07T02:32:24;96706.53;;;5.92;72.31
21944;BME280;11136;48.778;9.126;2024-01-07T02:34:49;96795.47;;;6.52;72.34
21944;BME280;11136;48.778;9.126;2024-01-07T02:37:15;96912.13;;;7.03;72.91
21944;BME280;11136;48.778;9.126;2024-01-07T02:39:40;96835.22;;;6.68;73.05
21944;BME280;11136;48.778;9.126;2024-01-07T02:42:05;96791.09;;;6.39;72.94
21944;BME280;11136;48.778;9.126;2024-01-07T02:44:31;96889.28;;;7.02;72.56
21944;BME280;11136;48.778;9.126;2024-01-07T02:46:56;96685.22;;;5.78;72.47
21944;BME280;11136;48.778;9.126;2024-01-07T02:49:21;96655.66;;;5.47;72.60
21944;BME280;11136;48.778;9.126;2024-01-07T02:51:46;96889.53;;;6.97;72.82
21944;BME280;11136;48.778;9.126;2024-01-07T02:54:15;96716.00;;;5.88;72.68
21944;BME280;11136;48.778;9.126;2024-01-07T02:56:40;96721.06;;;5.90;72.86
21944;BME280;11136;48.778;9.126;2024-01-07T02:59:05;96463.16;;;4.18;72.54
21944;BME280;11136;48.778;9.126;2024-01-07T03:01:30;96854.97;;;6.79;73.04
21944;BME280;11136;48.778;9.126;2024-01-07T03:03:56;96893.38;;;7.04;72.65
21944;BME280;11136;48.778;9.126;2024-01-07T03:06:21;96696.16;;;5.50;72.65
21944;BME280;11136;48.778;9.126;2024-01-07T03:08:47;96896.66;;;7.06;72.58
21944;BME280;11136;48.778;9.126;2024-01-07T03:11:13;96713.44;;;5.90;72.47
21944;BME280;11136;48.778;9.126;2024-01-07T03:13:40;96707.44;;;5.91;73.16
21944;BME280;11136;48.778;9.126;2024-01-07T03:16:05;96456.53;;;4.16;72.58
21944;BME280;11136;48.778;9.126;2024-01-07T03:18:31;96866.44;;;6.72;72.09
21944;BME280;11136;48.778;9.126;2024-01-07T03:20:56;96642.22;;;5.45;72.30
21944;BME280;11136;48.778;9.126;2024-01-07T03:23:21;96789.81;;;6.18;72.48
21944;BME280;11136;48.778;9.126;2024-01-07T03:25:46;96779.06;;;6.27;72.48
21944;BME280;11136;48.778;9.126;2024-01-07T03:28:12;96666.81;;;5.59;72.24
21944;BME280;11136;48.778;9.126;2024-01-07T03:30:37;96741.41;;;5.90;72.14
21944;BME280;11136;48.778;9.126;2024-01-07T03:33:02;96906.66;;;7.10;72.67
21944;BME280;11136;48.778;9.126;2024-01-07T03:35:28;96814.19;;;6.51;72.68
21944;BME280;11136;48.778;9.126;2024-01-07T03:37:53;96904.22;;;7.08;72.52
21944;BME280;11136;48.778;9.126;2024-01-07T03:40:18;96595.78;;;4.98;72.27
21944;BME280;11136;48.778;9.126;2024-01-07T03:42:44;96856.50;;;6.67;72.04
21944;BME280;11136;48.778;9.126;2024-01-07T03:45:09;96912.22;;;7.02;72.82
21944;BME280;11136;48.778;9.126;2024-01-07T03:47:34;96911.47;;;7.00;72.58
21944;BME280;11136;48.778;9.126;2024-01-07T03:49:59;96827.66;;;6.38;72.37
21944;BME280;11136;48.778;9.126;2024-01-07T03:52:25;96916.56;;;7.00;72.70
21944;BME280;11136;48.778;9.126;2024-01-07T03:54:50;96836.25;;;6.22;72.49
21944;BME280;11136;48.778;9.126;2024-01-07T03:57:16;96741.16;;;5.78;72.11
21944;BME280;11136;48.778;9.126;2024-01-07T03:59:41;96793.97;;;5.89;72.72
21944;BME280;11136;48.778;9.126;2024-01-07T04:02:06;96640.31;;;5.19;71.87
21944;BME280;11136;48.778;9.126;2024-01-07T04:04:32;96838.03;;;6.35;72.51
21944;BME280;11136;48.778;9.126;2024-01-07T04:06:58;96924.31;;;6.98;72.39
21944;BME280;11136;48.778;9.126;2024-01-07T04:09:23;96861.22;;;6.45;71.86
21944;BME280;11136;48.778;9.126;2024-01-07T04:11:48;96876.78;;;6.69;72.04
21944;BME280;11136;48.778;9.126;2024-01-07T04:14:15;96943.88;;;6.98;72.25
21944;BME280;11136;48.778;9.126;2024-01-07T04:16:40;96653.63;;;5.08;71.55
21944;BME280;11136;48.778;9.126;2024-01-07T04:19:05;96929.59;;;6.95;72.19
21944;BME280;11136;48.778;9.126;2024-01-07T04:21:31;96924.50;;;6.95;72.22
21944;BME280;11136;48.778;9.126;2024-01-07T04:23:56;96717.25;;;5.37;71.92
21944;BME280;11136;48.778;9.126;2024-01-07T04:26:21;96942.16;;;6.98;72.14
21944;BME280;11136;48.778;9.126;2024-01-07T04:28:47;96519.25;;;4.44;71.79
21944;BME280;11136;48.778;9.126;2024-01-07T04:31:12;96705.50;;;5.50;71.66
21944;BME280;11136;48.778;9.126;2024-01-07T04:33:37;96782.38;;;5.69;71.62
21944;BME280;11136;48.778;9.126;2024-01-07T04:36:03;96943.97;;;6.96;71.55
21944;BME280;11136;48.778;9.126;2024-01-07T04:38:29;96938.88;;;6.96;72.03
21944;BME280;11136;48.778;9.126;2024-01-07T04:40:54;96569.91;;;4.61;71.59
21944;BME280;11136;48.778;9.126;2024-01-07T04:43:20;96941.78;;;6.90;72.22
21944;BME280;11136;48.778;9.126;2024-01-07T04:45:45;96712.41;;;5.48;71.58
21944;BME280;11136;48.778;9.126;2024-01-07T04:48:11;96787.31;;;5.87;71.32
21944;BME280;11136;48.778;9.126;2024-01-07T04:50:36;96746.34;;;5.47;71.91
21944;BME280;11136;48.778;9.126;2024-01-07T04:53:02;96604.56;;;4.62;71.29
21944;BME280;11136;48.778;9.126;2024-01-07T04:55:27;96825.44;;;6.18;71.60
21944;BME280;11136;48.778;9.126;2024-01-07T04:57:53;96768.22;;;5.79;72.14
21944;BME280;11136;48.778;9.126;2024-01-07T05:00:18;96742.31;;;5.43;71.58
21944;BME280;11136;48.778;9.126;2024-01-07T05:02:43;96702.94;;;5.20;71.80
21944;BME280;11136;48.778;9.126;2024-01-07T05:05:09;96792.94;;;5.77;71.59
21944;BME280;11136;48.778;9.126;2024-01-07T05:07:34;96855.84;;;6.35;71.47
21944;BME280;11136;48.778;9.126;2024-01-07T05:09:59;96954.34;;;6.93;71.95
21944;BME280;11136;48.778;9.126;2024-01-07T05:12:25;96848.88;;;6.23;72.00
21944;BME280;11136;48.778;9.126;2024-01-07T05:14:51;96953.25;;;6.97;71.50
21944;BME280;11136;48.778;9.126;2024-01-07T05:17:17;96559.06;;;4.12;71.54
21944;BME280;11136;48.778;9.126;2024-01-07T05:19:42;96916.19;;;6.63;72.07
21944;BME280;11136;48.778;9.126;2024-01-07T05:22:07;96965.44;;;6.92;71.87
21944;BME280;11136;48.778;9.126;2024-01-07T05:24:32;96883.69;;;6.23;71.84
21944;BME280;11136;48.778;9.126;2024-01-07T05:26:58;96852.81;;;5.99;71.66
21944;BME280;11136;48.778;9.126;2024-01-07T05:29:23;96516.84;;;4.11;71.40
21944;BME280;11136;48.778;9.126;2024-01-07T05:31:48;96965.81;;;6.86;72.00
21944;BME280;11136;48.778;9.126;2024-01-07T05:34:14;96741.38;;;5.30;71.88
21944;BME280;11136;48.778;9.126;2024-01-07T05:36:39;96820.28;;;5.90;71.81
21944;BME280;11136;48.778;9.126;2024-01-07T05:39:04;96773.34;;;5.34;72.37
21944;BME280;11136;48.778;9.126;2024-01-07T05:41:29;96888.63;;;6.26;71.44
21944;BME280;11136;48.778;9.126;2024-01-07T05:43:55;96595.97;;;4.33;71.74
21944;BME280;11136;48.778;9.126;2024-01-07T05:46:20;96995.09;;;6.79;71.97
21944;BME280;11136;48.778;9.126;2024-01-07T05:48:46;96990.88;;;6.78;71.91
21944;BME280;11136;48.778;9.126;2024-01-07T05:51:13;96997.81;;;6.76;71.78
21944;BME280;11136;48.778;9.126;2024-01-07T05:53:39;96814.22;;;5.61;71.74
21944;BME280;11136;48.778;9.126;2024-01-07T05:56:05;96798.31;;;5.41;71.81
21944;BME280;11136;48.778;9.126;2024-01-07T05:58:30;96802.75;;;5.53;72.10
21944;BME280;11136;48.778;9.126;2024-01-07T06:00:55;96844.63;;;5.62;72.08
21944;BME280;11136;48.778;9.126;2024-01-07T06:03:21;96600.06;;;4.20;72.01
21944;BME280;11136;48.778;9.126;2024-01-07T06:05:46;96841.59;;;5.71;72.12
21944;BME280;11136;48.778;9.126;2024-01-07T06:08:11;96943.22;;;6.36;71.42
21944;BME280;11136;48.778;9.126;2024-01-07T06:10:38;96724.44;;;4.83;71.54
21944;BME280;11136;48.778;9.126;2024-01-07T06:13:03;97004.16;;;6.69;71.54
21944;BME280;11136;48.778;9.126;2024-01-07T06:15:29;96999.25;;;6.66;72.03
21944;BME280;11136;48.778;9.126;2024-01-07T06:17:54;96720.50;;;4.93;71.77
21944;BME280;11136;48.778;9.126;2024-01-07T06:20:20;97011.63;;;6.72;72.05
21944;BME280;11136;48.778;9.126;2024-01-07T06:22:45;96828.09;;;5.55;71.50
21944;BME280;11136;48.778;9.126;2024-01-07T06:25:11;96886.69;;;5.83;71.86
21944;BME280;11136;48.778;9.126;2024-01-07T06:27:38;97005.78;;;6.40;71.62
21944;BME280;11136;48.778;9.126;2024-01-07T06:30:04;96813.34;;;5.46;71.32
21944;BME280;11136;48.778;9.126;2024-01-07T06:32:29;97015.81;;;6.73;71.61
21944;BME280;11136;48.778;9.126;2024-01-07T06:34:57;96738.88;;;4.98;71.73
21944;BME280;11136;48.778;9.126;2024-01-07T06:37:22;97022.53;;;6.74;71.97
21944;BME280;11136;48.778;9.126;2024-01-07T06:39:47;96968.41;;;6.40;71.15
21944;BME280;11136;48.778;9.126;2024-01-07T06:42:13;97032.72;;;6.74;71.52
21944;BME280;11136;48.778;9.126;2024-01-07T06:44:38;97042.16;;;6.42;71.64
21944;BME280;11136;48.778;9.126;2024-01-07T06:47:03;96869.91;;;5.65;71.40
21944;BME280;11136;48.778;9.126;2024-01-07T06:49:28;96736.66;;;3.77;70.75
21944;BME280;11136;48.778;9.126;2024-01-07T06:51:54;97084.03;;;6.68;71.30
21944;BME280;11136;48.778;9.126;2024-01-07T06:54:19;96848.19;;;5.44;71.56
21944;BME280;11136;48.778;9.126;2024-01-07T06:56:44;97029.88;;;6.34;71.50
21944;BME280;11136;48.778;9.126;2024-01-07T06:59:09;96860.31;;;5.39;71.25
21944;BME280;11136;48.778;9.126;2024-01-07T07:01:36;97077.38;;;6.65;71.15
21944;BME280;11136;48.778;9.126;2024-01-07T07:04:01;97055.28;;;6.66;71.04
21944;BME280;11136;48.778;9.126;2024-01-07T07:06:26;96871.81;;;5.46;70.74
21944;BME280;11136;48.778;9.126;2024-01-07T07:08:51;96901.31;;;5.64;70.63
21944;BME280;11136;48.778;9.126;2024-01-07T07:11:17;97084.03;;;6.68;70.77
21944;BME280;11136;48.778;9.126;2024-01-07T07:13:42;96830.81;;;5.20;70.91
21944;BME280;11136;48.778;9.126;2024-01-07T07:16:07;97069.66;;;6.67;71.05
21944;BME280;11136;48.778;9.126;2024-01-07T07:18:34;97018.38;;;6.11;70.82
21944;BME280;11136;48.778;9.126;2024-01-07T07:20:59;97075.31;;;6.56;70.68
21944;BME280;11136;48.778;9.126;2024-01-07T07:23:24;96842.09;;;4.99;70.68
21944;BME280;11136;48.778;9.126;2024-01-07T07:25:50;97040.88;;;6.19;70.23
21944;BME280;11136;48.778;9.126;2024-01-07T07:28:15;97037.75;;;6.14;70.33
21944;BME280;11136;48.778;9.126;2024-01-07T07:30:42;97102.78;;;6.51;70.18
21944;BME280;11136;48.778;9.126;2024-01-07T07:33:07;96791.94;;;4.38;70.03
21944;BME280;11136;48.778;9.126;2024-01-07T07:35:33;97051.94;;;6.18;69.90
21944;BME280;11136;48.778;9.126;2024-01-07T07:37:58;97092.84;;;6.47;69.81
21944;BME280;11136;48.778;9.126;2024-01-07T07:40:23;96944.75;;;5.28;69.83
21944;BME280;11136;48.778;9.126;2024-01-07T07:42:48;96916.91;;;5.27;69.44
21944;BME280;11136;48.778;9.126;2024-01-07T07:45:14;97010.94;;;5.75;69.34
21944;BME280;11136;48.778;9.126;2024-01-07T07:47:40;97109.28;;;6.41;69.24
21944;BME280;11136;48.778;9.126;2024-01-07T07:50:09;96875.03;;;4.68;69.20
21944;BME280;11136;48.778;9.126;2024-01-07T07:52:35;97128.38;;;6.32;69.04
21944;BME280;11136;48.778;9.126;2024-01-07T07:55:00;96970.06;;;4.97;68.96
21944;BME280;11136;48.778;9.126;2024-01-07T07:57:25;96964.72;;;5.18;68.74
21944;BME280;11136;48.778;9.126;2024-01-07T07:59:51;97126.75;;;6.31;68.74
21944;BME280;11136;48.778;9.126;2024-01-07T08:02:17;97127.56;;;6.32;68.95
21944;BME280;11136;48.778;9.126;2024-01-07T08:04:43;96837.22;;;4.46;68.09
21944;BME280;11136;48.778;9.126;2024-01-07T08:07:09;97119.66;;;6.05;68.19
21944;BME280;11136;48.778;9.126;2024-01-07T08:09:34;97064.19;;;5.78;68.71
21944;BME280;11136;48.778;9.126;2024-01-07T08:12:04;97105.13;;;5.74;68.45
21944;BME280;11136;48.778;9.126;2024-01-07T08:14:29;97107.69;;;6.07;68.20
21944;BME280;11136;48.778;9.126;2024-01-07T08:16:55;97003.53;;;5.22;68.12
21944;BME280;11136;48.778;9.126;2024-01-07T08:19:21;96902.69;;;4.56;68.18
21944;BME280;11136;48.778;9.126;2024-01-07T08:21:46;96913.69;;;4.73;68.48
21944;BME280;11136;48.778;9.126;2024-01-07T08:24:12;96899.84;;;4.63;68.03
21944;BME280;11136;48.778;9.126;2024-01-07T08:26:37;96865.28;;;4.43;68.17
21944;BME280;11136;48.778;9.126;2024-01-07T08:29:03;97165.00;;;6.30;67.96
21944;BME280;11136;48.778;9.126;2024-01-07T08:31:28;96999.06;;;5.43;67.87
21944;BME280;11136;48.778;9.126;2024-01-07T08:33:53;97047.97;;;5.48;68.15
21944;BME280;11136;48.778;9.126;2024-01-07T08:36:19;96879.25;;;4.34;67.74
21944;BME280;11136;48.778;9.126;2024-01-07T08:38:44;97037.47;;;5.54;67.76
21944;BME280;11136;48.778;9.126;2024-01-07T08:41:09;97029.56;;;5.43;68.00
21944;BME280;11136;48.778;9.126;2024-01-07T08:43:34;96998.97;;;5.11;67.55
21944;BME280;11136;48.778;9.126;2024-01-07T08:46:00;96911.56;;;4.48;67.35
21944;BME280;11136;48.778;9.126;2024-01-07T08:48:25;97069.47;;;5.58;67.42
21944;BME280;11136;48.778;9.126;2024-01-07T08:50:51;97115.25;;;5.58;67.62
21944;BME280;11136;48.778;9.126;2024-01-07T08:53:17;97184.47;;;6.15;67.55
21944;BME280;11136;48.778;9.126;2024-01-07T08:55:42;96950.63;;;4.80;67.71
21944;BME280;11136;48.778;9.126;2024-01-07T08:58:07;96986.81;;;5.01;66.72
21944;BME280;11136;48.778;9.126;2024-01-07T09:00:33;97171.09;;;6.11;67.33
21944;BME280;11136;48.778;9.126;2024-01-07T09:02:58;97233.00;;;6.12;67.31
21944;BME280;11136;48.778;9.126;2024-01-07T09:05:23;96800.00;;;3.60;67.17
21944;BME280;11136;48.778;9.126;2024-01-07T09:07:52;96445.50;;;0.71;66.68
21944;BME280;11136;48.778;9.126;2024-01-07T09:10:17;97075.19;;;5.29;66.82
21944;BME280;11136;48.778;9.126;2024-01-07T09:12:44;97152.66;;;5.21;66.62
21944;BME280;11136;48.778;9.126;2024-01-07T09:15:09;97103.16;;;5.29;66.63
21944;BME280;11136;48.778;9.126;2024-01-07T09:17:36;97036.41;;;4.90;66.62
21944;BME280;11136;48.778;9.126;2024-01-07T09:20:03;97195.25;;;6.03;66.45
21944;BME280;11136;48.778;9.126;2024-01-07T09:22:30;96829.84;;;3.72;66.00
21944;BME280;11136;48.778;9.126;2024-01-07T09:24:55;97100.81;;;5.41;66.02
21944;BME280;11136;48.778;9.126;2024-01-07T09:27:21;96899.78;;;4.12;65.92
21944;BME280;11136;48.778;9.126;2024-01-07T09:29:46;96510.00;;;0.77;65.44
21944;BME280;11136;48.778;9.126;2024-01-07T09:32:12;96048.00;;;-1.82;65.32
21944;BME280;11136;48.778;9.126;2024-01-07T09:34:37;96664.75;;;2.56;65.78
21944;BME280;11136;48.778;9.126;2024-01-07T09:37:02;97090.91;;;5.02;65.73
21944;BME280;11136;48.778;9.126;2024-01-07T09:39:28;97039.50;;;4.80;65.45
21944;BME280;11136;48.778;9.126;2024-01-07T09:41:53;97117.69;;;5.60;65.60
21944;BME280;11136;48.778;9.126;2024-01-07T09:44:19;96774.63;;;2.69;64.99
21944;BME280;11136;48.778;9.126;2024-01-07T09:46:44;97261.25;;;6.23;65.07
21944;BME280;11136;48.778;9.126;2024-01-07T09:49:14;97160.84;;;5.61;65.27
21944;BME280;11136;48.778;9.126;2024-01-07T09:51:40;96990.78;;;4.72;65.19
21944;BME280;11136;48.778;9.126;2024-01-07T09:54:08;97051.13;;;5.18;65.06
21944;BME280;11136;48.778;9.126;2024-01-07T09:56:39;97081.63;;;5.18;64.57
21944;BME280;11136;48.778;9.126;2024-01-07T09:59:08;96912.09;;;4.20;64.33
21944;BME280;11136;48.778;9.126;2024-01-07T10:01:34;96959.19;;;3.52;64.45
21944;BME280;11136;48.778;9.126;2024-01-07T10:04:00;97013.19;;;4.64;64.30
21944;BME280;11136;48.778;9.126;2024-01-07T10:06:26;97217.72;;;6.12;64.32
21944;BME280;11136;48.778;9.126;2024-01-07T10:08:51;96844.91;;;3.75;64.44
21944;BME280;11136;48.778;9.126;2024-01-07T10:11:16;96125.78;;;-0.95;63.27
21944;BME280;11136;48.778;9.126;2024-01-07T10:13:45;97174.47;;;5.95;64.12
21944;BME280;11136;48.778;9.126;2024-01-07T10:16:10;97153.00;;;5.66;63.80
21944;BME280;11136;48.778;9.126;2024-01-07T10:18:36;96905.53;;;4.33;64.25
21944;BME280;11136;48.778;9.126;2024-01-07T10:21:02;97171.13;;;4.89;63.66
21944;BME280;11136;48.778;9.126;2024-01-07T10:23:31;96610.97;;;2.14;64.05
21944;BME280;11136;48.778;9.126;2024-01-07T10:25:57;96577.97;;;2.18;63.84
21944;BME280;11136;48.778;9.126;2024-01-07T10:28:23;97084.41;;;4.60;63.81
21944;BME280;11136;48.778;9.126;2024-01-07T10:30:49;97216.34;;;6.05;64.13
21944;BME280;11136;48.778;9.126;2024-01-07T10:33:18;97049.19;;;4.72;64.04
21944;BME280;11136;48.778;9.126;2024-01-07T10:36:05;97135.50;;;5.08;63.73
21944;BME280;11136;48.778;9.126;2024-01-07T10:38:31;96581.88;;;1.87;63.81
21944;BME280;11136;48.778;9.126;2024-01-07T10:40:59;97045.88;;;4.52;63.63
21944;BME280;11136;48.778;9.126;2024-01-07T10:43:29;97246.91;;;5.34;63.28
21944;BME280;11136;48.778;9.126;2024-01-07T10:45:55;96629.22;;;2.02;63.24
21944;BME280;11136;48.778;9.126;2024-01-07T10:48:21;96833.41;;;2.75;63.85
21944;BME280;11136;48.778;9.126;2024-01-07T10:50:50;96942.47;;;3.85;63.22
21944;BME280;11136;48.778;9.126;2024-01-07T10:53:21;97084.91;;;4.86;63.18
21944;BME280;11136;48.778;9.126;2024-01-07T10:55:54;96714.81;;;1.91;63.07
21944;BME280;11136;48.778;9.126;2024-01-07T10:58:24;96349.94;;;-0.37;62.88
21944;BME280;11136;48.778;9.126;2024-01-07T11:00:49;97111.41;;;4.80;62.56
21944;BME280;11136;48.778;9.126;2024-01-07T11:05:54;97262.41;;;5.64;62.73
21944;BME280;11136;48.778;9.126;2024-01-07T11:11:06;97245.50;;;5.63;62.69
21944;BME280;11136;48.778;9.126;2024-01-07T11:13:37;97060.31;;;4.33;62.39
21944;BME280;11136;48.778;9.126;2024-01-07T11:16:07;97118.63;;;4.53;62.58
21944;BME280;11136;48.778;9.126;2024-01-07T11:18:40;97242.84;;;5.66;62.83
21944;BME280;11136;48.778;9.126;2024-01-07T11:21:10;96527.97;;;1.10;62.33
21944;BME280;11136;48.778;9.126;2024-01-07T11:23:36;97210.91;;;5.07;62.07
21944;BME280;11136;48.778;9.126;2024-01-07T11:26:07;97016.72;;;4.06;61.77
21944;BME280;11136;48.778;9.126;2024-01-07T11:31:21;97155.31;;;5.01;62.40
21944;BME280;11136;48.778;9.126;2024-01-07T11:33:50;97242.22;;;5.61;62.11
21944;BME280;11136;48.778;9.126;2024-01-07T11:36:16;96825.13;;;2.91;62.33
21944;BME280;11136;48.778;9.126;2024-01-07T11:38:48;97048.13;;;4.22;62.03
21944;BME280;11136;48.778;9.126;2024-01-07T11:41:14;97228.03;;;5.57;62.54
21944;BME280;11136;48.778;9.126;2024-01-07T11:44:00;96388.16;;;0.36;61.68
21944;BME280;11136;48.778;9.126;2024-01-07T11:46:29;97240.44;;;5.63;62.36
21944;BME280;11136;48.778;9.126;2024-01-07T11:48:58;97125.94;;;4.59;62.56
21944;BME280;11136;48.778;9.126;2024-01-07T11:51:28;97192.38;;;5.05;62.05
21944;BME280;11136;48.778;9.126;2024-01-07T11:53:55;97241.78;;;5.53;62.04
21944;BME280;11136;48.778;9.126;2024-01-07T11:56:20;97154.25;;;4.69;62.23
21944;BME280;11136;48.778;9.126;2024-01-07T11:58:46;97247.16;;;5.47;61.77
21944;BME280;11136;48.778;9.126;2024-01-07T12:01:11;97210.63;;;5.13;62.15
21944;BME280;11136;48.778;9.126;2024-01-07T12:03:36;97093.84;;;4.40;61.90
21944;BME280;11136;48.778;9.126;2024-01-07T12:06:03;96992.28;;;3.49;61.79
21944;BME280;11136;48.778;9.126;2024-01-07T12:08:29;97180.81;;;4.81;61.45
21944;BME280;11136;48.778;9.126;2024-01-07T12:10:55;97169.09;;;4.78;61.84
21944;BME280;11136;48.778;9.126;2024-01-07T12:13:21;96724.59;;;1.78;61.68
21944;BME280;11136;48.778;9.126;2024-01-07T12:15:46;97152.78;;;3.88;61.54
21944;BME280;11136;48.778;9.126;2024-01-07T12:18:12;97209.28;;;4.50;62.00
21944;BME280;11136;48.778;9.126;2024-01-07T12:20:38;97161.31;;;4.81;61.75
21944;BME280;11136;48.778;9.126;2024-01-07T12:23:07;97246.09;;;5.34;61.85
21944;BME280;11136;48.778;9.126;2024-01-07T12:25:34;96861.97;;;2.98;61.86
21944;BME280;11136;48.778;9.126;2024-01-07T12:27:59;97092.81;;;4.25;61.99
21944;BME280;11136;48.778;9.126;2024-01-07T12:30:25;97109.28;;;4.35;61.61
21944;BME280;11136;48.778;9.126;2024-01-07T12:32:55;97266.63;;;5.48;62.20
21944;BME280;11136;48.778;9.126;2024-01-07T12:35:20;97148.09;;;4.56;61.74
21944;BME280;11136;48.778;9.126;2024-01-07T12:37:47;97273.75;;;5.40;61.61
21944;BME280;11136;48.778;9.126;2024-01-07T12:40:13;97280.78;;;5.35;62.19
21944;BME280;11136;48.778;9.126;2024-01-07T12:42:39;97234.88;;;4.45;61.87
21944;BME280;11136;48.778;9.126;2024-01-07T12:45:11;97288.63;;;5.30;62.32
21944;BME280;11136;48.778;9.126;2024-01-07T12:47:36;97229.38;;;4.73;62.09
21944;BME280;11136;48.778;9.126;2024-01-07T12:50:02;97096.59;;;3.97;62.24
21944;BME280;11136;48.778;9.126;2024-01-07T12:52:27;97034.19;;;3.56;62.14
21944;BME280;11136;48.778;9.126;2024-01-07T12:54:53;97186.25;;;4.54;62.36
21944;BME280;11136;48.778;9.126;2024-01-07T12:57:21;97011.25;;;3.40;62.22
21944;BME280;11136;48.778;9.126;2024-01-07T12:59:47;97173.56;;;4.54;62.49
21944;BME280;11136;48.778;9.126;2024-01-07T13:02:12;97269.19;;;5.10;62.34
21944;BME280;11136;48.778;9.126;2024-01-07T13:04:38;96874.88;;;2.32;62.38
21944;BME280;11136;48.778;9.126;2024-01-07T13:07:03;97028.66;;;3.48;62.21
21944;BME280;11136;48.778;9.126;2024-01-07T13:09:29;97199.25;;;4.28;62.57
21944;BME280;11136;48.778;9.126;2024-01-07T13:11:54;97159.91;;;4.38;62.38